METAR AND TAF INFORMATION
METAR FOR LGRP
ADDS - METARS form results

(1432 UTC 17 August 2019)
Data provider http://aviationweather.gov/metar/data/
 
METAR text: LGRP 171420Z 26017KT 9999 FEW020 31/21 Q1005 NOSIG
Conditions at: LGRP (RHODES/DIAGORAS , GR) observed 1420 UTC 17 August 2019
Temperature: 31.0°C (88°F)
Dewpoint: 21.0°C (70°F) [RH = 55%]
Pressure (altimeter): 29.68 inches Hg (1005.0 mb)
Winds: from the W (260 degrees) at 20 MPH (17 knots; 8.7 m/s)
Visibility: 6 or more miles (10+ km)
Ceiling: at least 12,000 feet AGL
Clouds: few clouds at 2000 feet AGL
Weather: no significant weather observed at this time

METAR text: LGRP 171350Z 26016KT 9999 FEW020 31/21 Q1006 NOSIG
Conditions at: LGRP (RHODES/DIAGORAS , GR) observed 1350 UTC 17 August 2019
Temperature: 31.0°C (88°F)
Dewpoint: 21.0°C (70°F) [RH = 55%]
Pressure (altimeter): 29.70 inches Hg (1006.0 mb)
Winds: from the W (260 degrees) at 18 MPH (16 knots; 8.2 m/s)
Visibility: 6 or more miles (10+ km)
Ceiling: at least 12,000 feet AGL
Clouds: few clouds at 2000 feet AGL
Weather: no significant weather observed at this time

Forecast for: LGRP (RHODES/DIAGORAS , GR)
Text: TAF LGRP 171100Z 1712/1812 25018G28KT 9999 FEW020
Forecast period: 1200 UTC 17 August 2019 to 1200 UTC 18 August 2019
Forecast type: FROM: standard forecast or significant change
Winds: from the WSW (250 degrees) at 21 MPH (18 knots; 9.3 m/s)
gusting to 32 MPH (28 knots; 14.4 m/s)
Visibility: 6 or more miles 10+ km)
Ceiling: at least 12,000 feet AGL
Clouds: few clouds at 2000 feet AGL
Weather: no significant weather forecast for this period

 AIRPORT MAP

 RUNWAY INFORMATION
Runway 07 Runway length 10846 ft Runway width 148 ft
Runway elevation 16 ft Runway displaced threshold 0 ft Runway heading 70
Runway 25 Runway length 10846 ft Runway width 148 ft
Runway elevation 17 ft Runway displaced threshold 0 ft Runway heading 250

 AIRPORT FREQUENCIES
Type A/G Name RDO Frequency 563.7 MHZ
Type APP Name RODOS APP Frequency 118.25 MHZ
Type ATIS Name ATIS Frequency 126.35 MHZ
Type GND Name GND Frequency 121.7 MHZ
Type TWR Name TWR Frequency 118.2 MHZ

 AIRPORT NEAR NAVIGATION AIDS
Type VOR-DME Name Paradisi Frequency 108600 KHZ
Type VOR-DME Name Rodos Frequency 115800 KHZ
Type TACAN Name Rodos Frequency 117400 KHZ
Type NDB Name Rodos Frequency 339 KHZ



Powered by Virtual Airlines Manager [v2.6.2]